Time;durP1;ratioP1;P1;durP2;ratioP2;P2;SDS_P1;SDS_P2;PMS_P1;PMS_P2;Temp;Humidity;BMP_temperature;BMP_pressure;BME280_temperature;BME280_humidity;BME280_pressure;Samples;Min_cycle;Max_cycle;Signal;HPM_P1;HPM_P2
2022/01/11 00:01:20;;;;;;;4.23;3.87;;;;;;;23.66;31.04;94386.13;7294121;19;137181;-56
2022/01/11 00:03:46;;;;;;;3.87;3.57;;;;;;;23.66;31.19;94389.56;7278628;19;138393;-51
2022/01/11 00:08:45;;;;;;;3.80;3.50;;;;;;;23.65;31.11;94393.34;7290936;19;138116;-51
2022/01/11 00:11:11;;;;;;;3.73;3.43;;;;;;;23.65;30.92;94392.56;7293959;19;138749;-56
2022/01/11 00:13:39;;;;;;;3.67;3.40;;;;;;;23.65;31.00;94403.22;7293859;19;136961;-56
2022/01/11 00:16:07;;;;;;;4.10;3.80;;;;;;;23.65;31.47;94395.22;7279026;19;137449;-51
2022/01/11 00:18:33;;;;;;;3.93;3.20;;;;;;;23.65;31.48;94400.56;7293700;19;137184;-55
2022/01/11 00:20:59;;;;;;;3.90;3.60;;;;;;;23.64;30.98;94405.13;7290363;19;137240;-55
2022/01/11 00:25:53;;;;;;;3.07;2.87;;;;;;;23.63;31.07;94403.56;7280289;19;136773;-56
2022/01/11 00:28:21;;;;;;;3.60;3.30;;;;;;;23.64;31.30;94412.34;7289580;19;137930;-53
2022/01/11 00:30:48;;;;;;;3.33;3.10;;;;;;;23.64;30.83;94399.78;7291469;19;137311;-57
2022/01/11 00:33:19;;;;;;;3.10;2.90;;;;;;;23.64;30.85;94401.66;7293226;19;137527;-54
2022/01/11 00:35:56;;;;;;;3.10;2.90;;;;;;;23.63;30.77;94411.56;7292968;19;136995;-50
2022/01/11 00:38:22;;;;;;;2.93;2.73;;;;;;;23.63;31.17;94413.44;7278388;19;138533;-56
2022/01/11 00:40:50;;;;;;;3.33;3.10;;;;;;;23.64;31.33;94420.34;7293557;19;137417;-56
2022/01/11 00:43:17;;;;;;;3.60;3.30;;;;;;;23.63;31.24;94418.78;7292682;19;136985;-54
2022/01/11 00:45:43;;;;;;;2.90;2.70;;;;;;;23.63;30.73;94419.56;7292581;19;137025;-55
2022/01/11 00:48:09;;;;;;;3.30;3.10;;;;;;;23.63;30.94;94424.13;7277428;19;137091;-53
2022/01/11 00:50:36;;;;;;;3.37;3.17;;;;;;;23.63;30.88;94426.78;7292290;19;138022;-56
2022/01/11 00:53:03;;;;;;;2.60;2.40;;;;;;;23.63;31.19;94429.44;7291411;19;137432;-56
2022/01/11 00:55:29;;;;;;;2.50;2.30;;;;;;;23.63;30.69;94432.91;7292881;19;136807;-56
2022/01/11 00:57:54;;;;;;;3.17;2.97;;;;;;;23.62;30.75;94434.00;7292519;19;137458;-56
2022/01/11 01:00:20;;;;;;;2.70;2.50;;;;;;;23.62;30.81;94434.00;7276719;19;137447;-57
2022/01/11 01:02:46;;;;;;;2.83;2.63;;;;;;;23.62;31.13;94442.00;7292245;19;137749;-56
2022/01/11 01:05:11;;;;;;;2.70;2.50;;;;;;;23.62;30.67;94444.66;7292132;19;136782;-57
2022/01/11 01:07:37;;;;;;;2.83;2.63;;;;;;;23.62;30.55;94446.56;7296741;19;138019;-57
2022/01/11 01:10:10;;;;;;;2.57;2.37;;;;;;;23.61;30.48;94448.44;7284943;19;137317;-56
2022/01/11 01:12:36;;;;;;;2.80;2.60;;;;;;;23.61;30.64;94451.09;7299319;19;137049;-55
2022/01/11 01:15:03;;;;;;;2.77;2.57;;;;;;;23.62;31.22;94451.88;7297630;19;138087;-52
2022/01/11 01:17:28;;;;;;;1.97;1.87;;;;;;;23.61;30.57;94447.66;7299246;19;137061;-56
2022/01/11 01:19:54;;;;;;;2.50;2.30;;;;;;;23.61;30.59;94453.00;7297813;19;137753;-54
2022/01/11 01:22:20;;;;;;;2.40;2.20;;;;;;;23.60;30.69;94456.75;7286010;19;138813;-57
2022/01/11 01:24:47;;;;;;;2.43;2.23;;;;;;;23.62;30.79;94465.22;7299529;19;136645;-56
2022/01/11 01:27:13;;;;;;;2.57;2.37;;;;;;;23.61;30.46;94463.66;7297118;19;137723;-54
2022/01/11 01:29:40;;;;;;;2.00;1.90;;;;;;;23.61;30.39;94469.00;7297903;19;139471;-57
2022/01/11 01:32:08;;;;;;;2.50;2.30;;;;;;;23.60;30.99;94470.88;7284894;19;138631;-54
2022/01/11 01:34:34;;;;;;;2.77;2.50;;;;;;;23.61;30.61;94469.78;7297957;19;136933;-55
2022/01/11 01:37:00;;;;;;;1.93;1.83;;;;;;;23.61;30.95;94469.78;7297082;19;137119;-54
2022/01/11 01:39:26;;;;;;;2.20;2.07;;;;;;;23.59;30.61;94471.97;7298360;19;138471;-57
2022/01/11 01:41:52;;;;;;;2.30;2.10;;;;;;;23.60;31.04;94473.53;7295884;19;137515;-57
2022/01/11 01:44:18;;;;;;;2.40;2.20;;;;;;;23.58;30.33;94470.44;7283896;19;136818;-55
2022/01/11 01:46:44;;;;;;;2.47;2.27;;;;;;;23.59;30.26;94466.66;7297996;19;137552;-56
2022/01/11 01:49:16;;;;;;;1.90;1.80;;;;;;;23.59;30.22;94469.31;7295650;19;138095;-56
2022/01/11 01:51:42;;;;;;;2.10;2.00;;;;;;;23.59;30.67;94471.97;7296435;19;136768;-52
2022/01/11 01:54:08;;;;;;;1.83;1.73;;;;;;;23.59;30.46;94474.66;7283787;19;136688;-55
2022/01/11 01:56:34;;;;;;;2.10;2.00;;;;;;;23.58;30.53;94472.31;7297187;19;137174;-55
2022/01/11 01:59:00;;;;;;;2.00;1.47;;;;;;;23.59;30.28;94471.97;7297022;19;137016;-56
2022/01/11 02:01:26;;;;;;;1.90;1.80;;;;;;;23.58;30.17;94475.75;7298156;19;136833;-55
2022/01/11 02:03:52;;;;;;;2.37;2.17;;;;;;;23.57;30.41;94484.88;7296055;19;137650;-51
2022/01/11 02:06:20;;;;;;;1.70;1.60;;;;;;;23.59;30.14;94487.22;7284286;19;137758;-56
2022/01/11 02:08:47;;;;;;;2.27;2.07;;;;;;;23.59;30.80;94489.88;7294997;19;136908;-55
2022/01/11 02:11:18;;;;;;;1.77;1.67;;;;;;;23.58;30.03;94494.44;7297163;19;136847;-55
2022/01/11 02:13:48;;;;;;;1.40;1.30;;;;;;;23.59;30.27;94497.88;7297464;19;137596;-56
2022/01/11 02:16:13;;;;;;;1.77;1.67;;;;;;;23.58;30.30;94497.09;7283667;19;138680;-56
2022/01/11 02:18:45;;;;;;;1.97;1.87;;;;;;;23.57;30.63;94500.88;7297367;19;137088;-57
2022/01/11 02:21:11;;;;;;;1.60;1.50;;;;;;;23.57;30.29;94486.75;7294589;19;137692;-56
2022/01/11 02:23:37;;;;;;;1.90;1.80;;;;;;;23.57;30.63;94500.09;7296504;19;136820;-55
2022/01/11 02:26:03;;;;;;;1.90;1.80;;;;;;;23.58;30.35;94504.31;7296770;19;136992;-56
2022/01/11 02:28:29;;;;;;;1.30;1.20;;;;;;;23.56;30.19;94501.94;7279939;19;137643;-55
2022/01/11 02:30:57;;;;;;;1.43;1.33;;;;;;;23.56;30.70;94507.28;7296628;19;136836;-56
2022/01/11 02:33:38;;;;;;;1.60;1.50;;;;;;;23.56;30.54;94501.94;7297147;19;138328;-56
2022/01/11 02:36:09;;;;;;;1.80;1.70;;;;;;;23.56;30.59;94504.59;7296105;19;136922;-55
2022/01/11 02:38:35;;;;;;;1.80;1.70;;;;;;;23.56;30.56;94501.16;7282369;19;138109;-55
2022/01/11 02:41:01;;;;;;;2.00;1.90;;;;;;;23.57;30.02;94508.88;7296816;19;136925;-55
2022/01/11 02:43:27;;;;;;;1.50;1.40;;;;;;;23.56;30.68;94507.28;7296922;19;136898;-54
2022/01/11 02:45:54;;;;;;;1.77;1.63;;;;;;;23.56;30.44;94501.94;7296334;19;136982;-53
2022/01/11 02:48:21;;;;;;;1.60;1.50;;;;;;;23.56;30.45;94501.94;7294457;19;138095;-56
2022/01/11 02:50:47;;;;;;;1.30;1.20;;;;;;;23.56;30.37;94515.28;7282067;19;137459;-56
2022/01/11 02:53:14;;;;;;;1.90;1.80;;;;;;;23.55;30.25;94513.72;7295978;19;137234;-53
2022/01/11 02:55:43;;;;;;;1.40;1.30;;;;;;;23.56;30.63;94520.59;7296542;19;137141;-57
2022/01/11 02:58:09;;;;;;;1.60;1.50;;;;;;;23.56;29.89;94520.59;7294741;19;137765;-52
2022/01/11 03:00:38;;;;;;;1.60;1.50;;;;;;;23.55;30.59;94521.72;7281993;19;136927;-55
2022/01/11 03:03:11;;;;;;;1.70;1.60;;;;;;;23.56;30.44;94525.94;7295284;19;137453;-55
2022/01/11 03:05:37;;;;;;;1.70;1.60;;;;;;;23.55;30.68;94524.38;7294354;19;137326;-56
2022/01/11 03:08:02;;;;;;;1.40;1.30;;;;;;;23.55;29.95;94524.38;7294205;19;137577;-56
2022/01/11 03:10:36;;;;;;;1.30;1.20;;;;;;;23.55;29.86;94523.59;7295455;19;136917;-56
2022/01/11 03:13:04;;;;;;;1.50;1.40;;;;;;;23.55;29.94;94523.59;7287269;19;137491;-56
2022/01/11 03:15:29;;;;;;;1.47;1.37;;;;;;;23.55;30.33;94526.25;7295312;19;138562;-55
2022/01/11 03:17:55;;;;;;;1.50;1.40;;;;;;;23.54;30.14;94536.16;7295445;19;137242;-55
2022/01/11 03:20:20;;;;;;;1.33;1.23;;;;;;;23.55;29.83;94529.72;7292921;19;137338;-56
2022/01/11 03:22:46;;;;;;;1.50;1.40;;;;;;;23.54;30.39;94525.47;7281008;19;136925;-56
2022/01/11 03:25:13;;;;;;;1.30;1.20;;;;;;;23.55;30.37;94534.25;7295364;19;137235;-56
2022/01/11 03:27:40;;;;;;;1.47;1.37;;;;;;;23.55;30.57;94532.38;7292690;19;138189;-55
2022/01/11 03:30:06;;;;;;;1.50;1.40;;;;;;;23.56;30.46;94538.50;7293836;19;137994;-56
2022/01/11 03:32:32;;;;;;;1.60;1.50;;;;;;;23.55;30.38;94534.25;7295265;19;136576;-54
2022/01/11 03:34:58;;;;;;;1.60;1.50;;;;;;;23.56;30.41;94536.59;7280195;19;137707;-53
2022/01/11 03:37:23;;;;;;;1.57;1.47;;;;;;;23.56;29.86;94535.81;7294520;19;137585;-54
2022/01/11 03:39:49;;;;;;;1.40;1.30;;;;;;;23.57;29.87;94527.53;7294557;19;137015;-54
2022/01/11 03:42:15;;;;;;;1.13;1.10;;;;;;;23.58;29.75;94534.44;7294306;19;137030;-54
2022/01/11 03:44:40;;;;;;;1.50;1.40;;;;;;;23.58;29.72;94534.44;7281472;19;137334;-55
2022/01/11 03:47:06;;;;;;;1.57;1.47;;;;;;;23.58;30.26;94534.44;7294761;19;136920;-55
2022/01/11 03:49:32;;;;;;;1.53;1.43;;;;;;;23.60;29.66;94534.09;7290326;19;137104;-56
2022/01/11 03:51:58;;;;;;;1.40;1.27;;;;;;;23.60;29.96;94542.09;7293967;19;136958;-56
2022/01/11 03:54:29;;;;;;;1.53;1.43;;;;;;;23.60;29.96;94548.22;7295203;19;137347;-58
2022/01/11 03:56:55;;;;;;;1.57;1.47;;;;;;;23.61;29.73;94552.44;7281478;19;139224;-55
2022/01/11 03:59:21;;;;;;;1.37;1.27;;;;;;;23.62;30.29;94556.69;7294383;19;136853;-56
2022/01/11 04:01:47;;;;;;;1.60;1.50;;;;;;;23.63;30.38;94552.13;7293894;19;138219;-56
2022/01/11 04:04:14;;;;;;;1.40;1.20;;;;;;;23.63;29.59;94550.25;7289837;19;137726;-56
2022/01/11 04:06:41;;;;;;;1.53;1.43;;;;;;;23.65;29.60;94558.69;7280076;19;137676;-55
2022/01/11 04:09:09;;;;;;;3.33;1.60;;;;;;;23.67;30.21;94556.50;7291479;19;137655;-54
2022/01/11 04:11:35;;;;;;;1.37;1.27;;;;;;;23.67;29.89;94559.16;7293065;19;138118;-56
2022/01/11 04:14:01;;;;;;;1.30;1.20;;;;;;;23.68;30.16;94565.28;7293836;19;137371;-54
2022/01/11 04:16:27;;;;;;;1.70;1.60;;;;;;;23.69;29.90;94569.53;7294238;19;137435;-55
2022/01/11 04:18:52;;;;;;;1.87;1.77;;;;;;;23.66;29.67;94570.94;7280016;19;139015;-51
2022/01/11 04:21:18;;;;;;;1.60;1.50;;;;;;;23.66;30.28;94573.59;7291924;19;136831;-55
2022/01/11 04:23:43;;;;;;;1.47;1.37;;;;;;;23.67;29.97;94583.16;7293820;19;137355;-56
2022/01/11 04:26:09;;;;;;;1.17;1.17;;;;;;;23.68;30.30;94581.28;7292563;19;136976;-55
2022/01/11 04:28:35;;;;;;;1.60;1.50;;;;;;;23.69;29.94;94583.66;7278296;19;138160;-56
2022/01/11 04:31:01;;;;;;;1.63;1.53;;;;;;;23.70;30.17;94593.22;7293437;19;136779;-56
2022/01/11 04:33:28;;;;;;;7.77;1.70;;;;;;;23.54;29.97;94594.81;7292166;19;138527;-54
2022/01/11 04:35:53;;;;;;;2.70;1.67;;;;;;;23.31;31.79;94593.44;7293143;19;138498;-51
2022/01/11 04:38:21;;;;;;;2.57;1.43;;;;;;;23.02;30.03;94597.59;7293075;19;137034;-52
2022/01/11 04:40:46;;;;;;;2.30;1.57;;;;;;;22.94;30.87;94603.72;7270490;19;140207;-54
2022/01/11 04:43:12;;;;;;;1.40;1.30;;;;;;;22.82;31.81;94603.56;7291177;19;137698;-53
2022/01/11 04:45:37;;;;;;;1.30;1.20;;;;;;;22.78;28.62;94610.59;7290652;19;137419;-53
2022/01/11 04:48:03;;;;;;;1.40;1.30;;;;;;;22.71;29.13;94603.06;7290795;19;137366;-53
2022/01/11 04:50:29;;;;;;;1.20;1.10;;;;;;;22.61;29.05;94614.03;7274909;19;137836;-53
2022/01/11 04:52:55;;;;;;;1.93;1.20;;;;;;;22.51;28.18;94617.00;7292301;19;138143;-61
2022/01/11 04:55:21;;;;;;;1.10;0.93;;;;;;;22.33;28.43;94624.16;7291017;19;138385;-56
2022/01/11 04:57:47;;;;;;;1.33;1.20;;;;;;;22.27;28.42;94620.09;7289054;19;137710;-57
2022/01/11 05:00:15;;;;;;;2.50;0.80;;;;;;;22.25;28.09;94632.16;7286486;19;137987;-57
2022/01/11 05:02:41;;;;;;;1.73;0.90;;;;;;;22.19;28.78;94626.97;7277286;19;139493;-56
2022/01/11 05:05:07;;;;;;;1.03;0.90;;;;;;;22.17;29.01;94620.38;7291729;19;137292;-58
2022/01/11 05:07:33;;;;;;;2.63;1.20;;;;;;;22.29;29.75;94623.22;7292591;19;137607;-58
2022/01/11 05:09:59;;;;;;;1.10;1.00;;;;;;;22.38;30.30;94628.56;7285714;19;139546;-58
2022/01/11 05:12:25;;;;;;;1.43;0.70;;;;;;;22.37;29.96;94629.66;7277865;19;140254;-56
2022/01/11 05:14:50;;;;;;;1.27;1.00;;;;;;;22.44;29.87;94635.31;7291528;19;137882;-56
2022/01/11 05:17:16;;;;;;;0.90;0.90;;;;;;;22.44;30.09;94629.97;7289596;19;137642;-59
2022/01/11 05:19:42;;;;;;;1.17;1.07;;;;;;;22.47;29.80;94630.13;7283594;19;137230;-55
2022/01/11 05:22:07;;;;;;;2.93;1.83;;;;;;;22.54;30.81;94634.25;7297868;19;137844;-59
2022/01/11 05:24:33;;;;;;;1.43;0.90;;;;;;;22.50;29.88;94650.03;7281440;19;137554;-52
2022/01/11 05:26:58;;;;;;;4.50;0.93;;;;;;;22.44;30.44;94651.28;7294412;19;137636;-55
2022/01/11 05:29:24;;;;;;;1.60;1.00;;;;;;;22.41;30.62;94650.03;7292333;19;137565;-53
2022/01/11 05:31:49;;;;;;;1.60;1.50;;;;;;;22.36;30.47;94654.72;7293843;19;137803;-53
2022/01/11 05:34:15;;;;;;;1.63;1.20;;;;;;;22.35;30.48;94647.84;7280508;19;138998;-51
2022/01/11 05:36:41;;;;;;;1.20;1.03;;;;;;;22.35;30.58;94647.84;7294242;19;137381;-54
2022/01/11 05:39:06;;;;;;;1.13;1.03;;;;;;;22.35;30.66;94653.16;7295746;19;136981;-55
2022/01/11 05:41:33;;;;;;;1.70;1.00;;;;;;;22.34;30.18;94663.03;7299487;19;138221;-55
2022/01/11 05:43:59;;;;;;;1.30;1.20;;;;;;;22.34;30.33;94662.22;7298576;19;136979;-53
2022/01/11 05:46:25;;;;;;;1.10;1.00;;;;;;;22.31;30.18;94663.63;7284738;19;137093;-56
2022/01/11 05:48:50;;;;;;;1.60;0.80;;;;;;;22.30;30.53;94670.03;7296333;19;137093;-56
2022/01/11 05:51:16;;;;;;;1.00;1.00;;;;;;;22.31;30.59;94676.13;7296278;19;137262;-55
2022/01/11 05:53:43;;;;;;;0.97;0.97;;;;;;;22.29;30.46;94671.13;7298671;19;137384;-56
2022/01/11 05:56:09;;;;;;;1.20;1.10;;;;;;;22.26;30.57;94679.72;7283995;19;137790;-56
2022/01/11 05:58:34;;;;;;;1.73;1.10;;;;;;;22.29;30.67;94679.13;7297631;19;137007;-52
2022/01/11 06:01:00;;;;;;;2.07;1.00;;;;;;;22.28;30.08;94677.53;7298100;19;138121;-54
2022/01/11 06:03:26;;;;;;;1.57;1.20;;;;;;;22.27;29.96;94672.53;7294426;19;139012;-54
2022/01/11 06:05:52;;;;;;;3.17;1.10;;;;;;;22.28;29.98;94680.19;7297458;19;136867;-56
2022/01/11 06:08:18;;;;;;;1.13;1.00;;;;;;;22.27;29.87;94694.59;7281617;19;136911;-55
2022/01/11 06:10:44;;;;;;;1.10;1.00;;;;;;;22.26;30.26;94702.91;7297419;19;137316;-57
2022/01/11 06:13:10;;;;;;;1.60;1.40;;;;;;;22.24;30.45;94697.88;7298049;19;137316;-56
2022/01/11 06:15:36;;;;;;;0.90;0.90;;;;;;;22.25;30.65;94706.66;7298174;19;136844;-56
2022/01/11 06:18:02;;;;;;;1.30;1.20;;;;;;;22.25;29.93;94723.41;7284993;19;137392;-56
2022/01/11 06:20:29;;;;;;;1.57;1.10;;;;;;;22.24;30.39;94721.06;7295330;19;137613;-57
2022/01/11 06:22:54;;;;;;;1.73;1.10;;;;;;;22.23;30.54;94727.47;7297641;19;137361;-56
2022/01/11 06:25:20;;;;;;;0.90;0.90;;;;;;;22.22;30.48;94726.69;7296457;19;137459;-56
2022/01/11 06:27:45;;;;;;;2.53;1.37;;;;;;;22.23;30.03;94725.59;7295341;19;137126;-56
2022/01/11 06:30:11;;;;;;;1.70;1.27;;;;;;;22.21;30.26;94733.09;7280961;19;139231;-56
2022/01/11 06:32:38;;;;;;;1.07;1.07;;;;;;;22.21;30.46;94725.91;7296909;19;137993;-56
2022/01/11 06:35:06;;;;;;;1.40;1.30;;;;;;;22.18;30.13;94723.88;7297505;19;137991;-53
2022/01/11 06:37:31;;;;;;;1.53;1.43;;;;;;;22.20;30.02;94734.97;7297283;19;137310;-53
2022/01/11 06:39:57;;;;;;;1.70;1.60;;;;;;;22.20;29.92;94736.84;7289184;19;138700;-54
2022/01/11 06:42:22;;;;;;;3.10;1.90;;;;;;;22.20;30.00;94742.97;7291926;19;137112;-56
2022/01/11 06:44:48;;;;;;;1.47;1.37;;;;;;;22.20;30.00;94734.19;7296854;19;137679;-56
2022/01/11 06:47:14;;;;;;;1.30;1.20;;;;;;;22.18;30.57;94734.50;7296561;19;136870;-56
2022/01/11 06:49:40;;;;;;;1.97;1.67;;;;;;;22.22;30.19;94745.31;7294472;19;137227;-54
2022/01/11 06:52:06;;;;;;;1.50;1.40;;;;;;;22.19;30.00;94745.94;7282938;19;137430;-55
2022/01/11 06:54:32;;;;;;;1.80;1.70;;;;;;;22.18;29.91;94749.69;7296078;19;136957;-54
2022/01/11 06:56:57;;;;;;;1.50;1.40;;;;;;;22.20;30.17;94750.16;7296730;19;136933;-54
2022/01/11 06:59:23;;;;;;;2.60;1.70;;;;;;;22.19;30.47;94751.25;7296012;19;138116;-54
2022/01/11 07:01:49;;;;;;;1.73;1.63;;;;;;;22.19;30.00;94768.00;7295174;19;137859;-54
2022/01/11 07:04:15;;;;;;;1.97;1.77;;;;;;;22.16;29.90;94773.13;7275961;19;137699;-52
2022/01/11 07:06:41;;;;;;;2.47;2.07;;;;;;;22.15;29.84;94768.91;7296043;19;137830;-54
2022/01/11 07:09:07;;;;;;;2.03;1.93;;;;;;;22.15;30.56;94768.91;7293722;19;138176;-54
2022/01/11 07:11:32;;;;;;;2.00;1.80;;;;;;;22.14;30.15;94770.00;7295368;19;137710;-51
2022/01/11 07:14:01;;;;;;;2.63;2.43;;;;;;;22.14;29.93;94770.00;7283212;19;137283;-49
2022/01/11 07:16:26;;;;;;;2.43;2.23;;;;;;;22.16;29.96;94765.94;7294713;19;137353;-53
2022/01/11 07:18:52;;;;;;;2.60;2.40;;;;;;;22.15;30.01;94782.22;7294821;19;136908;-54
2022/01/11 07:21:17;;;;;;;3.20;2.90;;;;;;;22.15;30.47;94782.22;7292264;19;137248;-54
2022/01/11 07:23:43;;;;;;;3.03;2.80;;;;;;;22.14;29.83;94785.97;7294294;19;136874;-53
2022/01/11 07:26:08;;;;;;;4.97;2.80;;;;;;;22.13;29.86;94785.19;7281884;19;137800;-54
2022/01/11 07:28:35;;;;;;;2.73;2.43;;;;;;;22.13;29.97;94800.34;7294276;19;137086;-53
2022/01/11 07:31:00;;;;;;;2.60;2.40;;;;;;;22.11;30.01;94797.22;7294165;19;137275;-55
2022/01/11 07:33:26;;;;;;;2.80;2.57;;;;;;;22.10;30.22;94798.31;7294801;19;137539;-55
2022/01/11 07:35:51;;;;;;;3.47;2.67;;;;;;;22.11;30.01;94808.66;7281088;19;137118;-55
2022/01/11 07:38:17;;;;;;;2.40;2.03;;;;;;;22.10;30.47;94806.28;7295163;19;138427;-56
2022/01/11 07:40:42;;;;;;;2.87;2.47;;;;;;;22.09;30.29;94807.38;7295262;19;137838;-58
2022/01/11 07:43:08;;;;;;;2.60;2.40;;;;;;;22.09;29.75;94810.03;7295499;19;137070;-57
2022/01/11 07:45:34;;;;;;;3.10;2.37;;;;;;;22.08;30.35;94811.91;7294189;19;136884;-56
2022/01/11 07:47:59;;;;;;;2.50;2.17;;;;;;;22.09;30.36;94810.03;7280704;19;137092;-56
2022/01/11 07:50:25;;;;;;;2.43;2.23;;;;;;;22.09;30.22;94812.69;7291713;19;137445;-57
2022/01/11 07:52:51;;;;;;;2.50;2.30;;;;;;;22.06;29.88;94815.97;7294386;19;136795;-56
2022/01/11 07:55:18;;;;;;;2.70;2.50;;;;;;;22.04;30.43;94824.22;7295221;19;138022;-57
2022/01/11 07:57:44;;;;;;;2.70;2.50;;;;;;;22.06;30.47;94829.28;7282025;19;137471;-58
2022/01/11 08:00:10;;;;;;;2.30;2.10;;;;;;;22.08;30.24;94832.41;7292381;19;137816;-58
2022/01/11 08:02:36;;;;;;;2.30;2.10;;;;;;;22.07;29.85;94836.16;7294920;19;136711;-53
2022/01/11 08:05:02;;;;;;;3.00;2.77;;;;;;;22.06;30.47;94834.59;7295009;19;137549;-56
2022/01/11 08:07:28;;;;;;;2.33;2.13;;;;;;;22.05;30.47;94833.81;7294353;19;137764;-55
2022/01/11 08:09:54;;;;;;;2.90;2.60;;;;;;;22.05;29.88;94835.69;7277912;19;137555;-54
2022/01/11 08:12:19;;;;;;;2.83;2.50;;;;;;;22.05;30.07;94841.00;7293889;19;136866;-54
2022/01/11 08:14:45;;;;;;;2.60;2.40;;;;;;;22.04;29.77;94845.50;7296049;19;136750;-55
2022/01/11 08:17:10;;;;;;;2.80;2.60;;;;;;;22.04;29.67;94850.84;7301280;19;137446;-55
2022/01/11 08:19:36;;;;;;;2.50;2.30;;;;;;;22.03;30.16;94856.47;7286269;19;137406;-56
2022/01/11 08:22:01;;;;;;;2.30;2.10;;;;;;;22.04;30.17;94850.06;7300232;19;137021;-53
2022/01/11 08:24:27;;;;;;;1.90;1.80;;;;;;;22.03;30.05;94848.47;7300074;19;137800;-57
2022/01/11 08:26:54;;;;;;;2.40;2.20;;;;;;;22.01;29.95;94854.09;7300189;19;136898;-52
2022/01/11 08:29:22;;;;;;;2.83;2.63;;;;;;;22.02;29.75;94857.56;7298784;19;137640;-56
2022/01/11 08:31:48;;;;;;;2.60;2.40;;;;;;;22.02;29.78;94862.88;7286361;19;137813;-56
2022/01/11 08:34:14;;;;;;;2.70;2.40;;;;;;;21.99;29.83;94858.13;7299896;19;136841;-52
2022/01/11 08:36:44;;;;;;;2.07;1.83;;;;;;;22.01;30.33;94862.09;7300187;19;136974;-56
2022/01/11 08:39:11;;;;;;;2.67;2.47;;;;;;;22.01;30.34;94869.28;7298976;19;137130;-53
2022/01/11 08:41:38;;;;;;;2.97;2.60;;;;;;;22.00;30.33;94871.13;7286899;19;138433;-55
2022/01/11 08:44:04;;;;;;;2.60;2.40;;;;;;;22.01;30.08;94877.25;7300211;19;137066;-57
2022/01/11 08:46:30;;;;;;;2.60;2.40;;;;;;;22.01;29.99;94886.03;7300055;19;137293;-55
2022/01/11 08:48:55;;;;;;;2.67;2.40;;;;;;;21.98;29.67;94893.81;7298467;19;137447;-57
2022/01/11 08:51:21;;;;;;;2.80;2.53;;;;;;;21.98;30.28;94899.91;7299883;19;137180;-57
2022/01/11 08:53:46;;;;;;;2.23;2.07;;;;;;;21.97;30.20;94903.66;7285825;19;137038;-57
2022/01/11 08:56:17;;;;;;;2.67;2.47;;;;;;;21.99;30.31;94895.38;7300943;19;138350;-52
2022/01/11 08:58:43;;;;;;;2.57;2.37;;;;;;;21.97;30.25;94900.22;7300285;19;137524;-57
2022/01/11 09:01:08;;;;;;;2.13;1.93;;;;;;;21.98;30.32;94913.22;7298858;19;137742;-55
2022/01/11 09:03:33;;;;;;;2.30;2.10;;;;;;;21.97;30.38;94911.63;7284402;19;137506;-55
2022/01/11 09:05:59;;;;;;;2.50;2.30;;;;;;;21.96;30.03;94917.25;7299570;19;137365;-55
2022/01/11 09:08:25;;;;;;;2.57;2.37;;;;;;;21.96;30.07;94906.63;7299276;19;136963;-56
2022/01/11 09:10:50;;;;;;;2.40;2.20;;;;;;;21.96;30.27;94904.75;7300056;19;137181;-55
2022/01/11 09:13:18;;;;;;;2.57;2.37;;;;;;;21.97;29.66;94914.31;7299590;19;136666;-55
2022/01/11 09:15:43;;;;;;;1.90;1.80;;;;;;;21.98;30.31;94912.44;7284270;19;137602;-52
2022/01/11 09:18:10;;;;;;;1.93;1.83;;;;;;;;;;7299090;19;138584;-57
2022/01/11 09:20:36;;;;;;;2.10;1.90;;;;;;;21.96;30.03;94917.25;7297384;19;136836;-53
2022/01/11 09:23:02;;;;;;;2.33;2.13;;;;;;;21.96;30.22;94926.03;7298395;19;137624;-55
2022/01/11 09:25:28;;;;;;;2.20;2.00;;;;;;;21.93;30.22;94934.63;7285363;19;137283;-56
2022/01/11 09:27:54;;;;;;;2.33;2.13;;;;;;;21.92;29.68;94919.75;7296147;19;137180;-54
2022/01/11 09:30:19;;;;;;;2.20;2.00;;;;;;;;;;7295263;19;137610;-55
2022/01/11 09:32:44;;;;;;;2.17;1.97;;;;;;;21.93;29.83;94927.41;7298449;19;136838;-55
2022/01/11 09:35:11;;;;;;;2.53;2.33;;;;;;;;;;7298230;19;137298;-53
2022/01/11 09:37:37;;;;;;;2.27;2.07;;;;;;;21.93;29.49;94931.97;7283982;19;137507;-55
2022/01/11 09:40:09;;;;;;;2.00;1.80;;;;;;;21.95;30.12;94923.69;7298764;19;136826;-54
2022/01/11 09:42:35;;;;;;;1.93;1.83;;;;;;;21.91;29.68;94926.94;7298383;19;136830;-55
2022/01/11 09:45:03;;;;;;;2.20;2.00;;;;;;;21.92;29.53;94923.19;7298112;19;136896;-56
2022/01/11 09:47:30;;;;;;;2.17;1.97;;;;;;;21.94;29.61;94930.88;7284580;19;137720;-55
2022/01/11 09:49:55;;;;;;;1.80;1.70;;;;;;;21.93;29.93;94930.09;7295794;19;137016;-56
2022/01/11 09:52:25;;;;;;;2.30;2.10;;;;;;;21.93;29.67;94929.28;7297400;19;136963;-55
2022/01/11 09:54:51;;;;;;;2.30;2.10;;;;;;;21.92;30.23;94935.72;7298374;19;137083;-56
2022/01/11 09:57:17;;;;;;;2.40;2.20;;;;;;;21.92;29.55;94939.16;7297736;19;137313;-56
2022/01/11 09:59:43;;;;;;;1.70;1.60;;;;;;;21.91;29.95;94937.59;7282895;19;136806;-56
2022/01/11 10:02:08;;;;;;;2.00;1.90;;;;;;;21.91;29.56;94942.91;7298163;19;136958;-56
2022/01/11 10:04:35;;;;;;;1.97;1.80;;;;;;;21.90;29.96;94941.31;7295342;19;137037;-53
2022/01/11 10:07:11;;;;;;;1.90;1.80;;;;;;;21.91;29.42;94947.44;7297336;19;137110;-56
2022/01/11 10:09:48;;;;;;;2.60;2.30;;;;;;;21.91;30.13;94937.59;7281875;19;137402;-55
2022/01/11 10:12:15;;;;;;;2.07;1.60;;;;;;;21.90;30.01;94937.88;7298241;19;138291;-55
2022/01/11 10:14:55;;;;;;;2.40;2.20;;;;;;;21.91;30.17;94936.78;7296864;19;138082;-52
2022/01/11 10:17:22;;;;;;;2.00;1.80;;;;;;;21.88;29.55;94932.09;7296893;19;137202;-53
2022/01/11 10:19:50;;;;;;;2.67;2.40;;;;;;;21.90;29.68;94933.34;7296529;19;137544;-57
2022/01/11 10:22:22;;;;;;;2.10;2.00;;;;;;;21.91;29.75;94934.91;7284174;19;138486;-56
2022/01/11 10:24:51;;;;;;;2.47;2.27;;;;;;;21.91;29.64;94940.25;7296905;19;137415;-53
2022/01/11 10:27:19;;;;;;;2.20;2.00;;;;;;;21.90;29.87;94944.00;7297709;19;137481;-55
2022/01/11 10:29:54;;;;;;;2.67;2.47;;;;;;;21.89;29.89;94939.75;7295090;19;137621;-56
2022/01/11 10:32:33;;;;;;;2.50;2.30;;;;;;;21.89;29.97;94944.28;7283634;19;137297;-53
2022/01/11 10:35:20;;;;;;;2.43;2.23;;;;;;;21.86;29.65;94939.56;7298596;19;138269;-57
2022/01/11 10:37:50;;;;;;;2.20;2.00;;;;;;;21.87;29.75;94944.59;7295527;19;137131;-51
2022/01/11 10:40:34;;;;;;;1.90;1.80;;;;;;;21.88;29.36;94938.19;7294170;19;139027;-53
2022/01/11 10:43:20;;;;;;;2.73;2.27;;;;;;;21.85;29.88;94938.78;7282458;19;136871;-57
2022/01/11 10:45:49;;;;;;;2.47;2.27;;;;;;;21.88;29.44;94943.50;7296630;19;137331;-55
2022/01/11 10:48:18;;;;;;;2.43;2.23;;;;;;;21.88;29.54;94943.50;7295781;19;137205;-56
2022/01/11 10:50:46;;;;;;;2.30;2.10;;;;;;;21.89;29.26;94946.94;7291798;19;138211;-55
2022/01/11 10:53:20;;;;;;;2.60;2.40;;;;;;;21.88;29.26;94943.50;7285252;19;136826;-54
2022/01/11 10:55:57;;;;;;;2.43;2.23;;;;;;;21.87;29.54;94941.94;7295730;19;137427;-55
2022/01/11 10:58:27;;;;;;;2.50;2.30;;;;;;;21.87;29.32;94938.50;7292967;19;139162;-55
2022/01/11 11:00:54;;;;;;;3.90;2.57;;;;;;;21.86;29.25;94940.38;7295759;19;136951;-54
2022/01/11 11:03:25;;;;;;;2.30;2.10;;;;;;;21.87;29.71;94944.59;7294483;19;136955;-54
2022/01/11 11:05:56;;;;;;;2.30;2.10;;;;;;;21.86;29.74;94947.56;7281984;19;137862;-55
2022/01/11 11:08:38;;;;;;;2.23;2.13;;;;;;;21.88;29.44;94942.72;7294998;19;137287;-57
2022/01/11 11:11:05;;;;;;;2.40;2.20;;;;;;;21.86;29.62;94944.91;7293664;19;138010;-54
2022/01/11 11:13:33;;;;;;;2.30;2.10;;;;;;;21.86;29.32;94940.38;7295617;19;136950;-54
2022/01/11 11:16:22;;;;;;;2.13;2.00;;;;;;;21.84;29.46;94944.41;7283952;19;139927;-57
2022/01/11 11:18:57;;;;;;;2.60;2.40;;;;;;;21.85;29.60;94935.34;7294176;19;137411;-56
2022/01/11 11:21:32;;;;;;;2.70;2.50;;;;;;;21.86;29.25;94940.38;7293109;19;137218;-56
2022/01/11 11:24:10;;;;;;;2.20;2.10;;;;;;;21.84;29.71;94947.84;7295811;19;137021;-54
2022/01/11 11:26:41;;;;;;;2.63;2.43;;;;;;;21.83;29.60;94945.47;7283195;19;140042;-57
2022/01/11 11:29:10;;;;;;;2.70;2.50;;;;;;;21.84;29.21;94944.41;7292097;19;137560;-56
2022/01/11 11:31:36;;;;;;;2.00;1.90;;;;;;;21.85;29.12;94945.97;7292999;19;139456;-56